createdAt,value
2023-04-17T00:00:30.597Z,88
2023-04-17T00:01:31.027Z,88
2023-04-17T00:02:31.581Z,88
2023-04-17T00:03:32.327Z,88
2023-04-17T00:04:32.944Z,88
2023-04-17T00:05:33.513Z,88
2023-04-17T00:06:34.030Z,88
2023-04-17T00:07:34.439Z,88
2023-04-17T00:08:34.819Z,88
2023-04-17T00:09:35.206Z,88
2023-04-17T00:10:35.610Z,88
2023-04-17T00:11:36.034Z,88
2023-04-17T00:12:36.446Z,88
2023-04-17T00:13:36.847Z,88
2023-04-17T00:14:37.231Z,88
2023-04-17T00:15:37.628Z,88
2023-04-17T00:16:38.083Z,88
2023-04-17T00:17:38.553Z,88
2023-04-17T00:18:39.010Z,88
2023-04-17T00:19:39.397Z,88
2023-04-17T00:20:39.789Z,88
2023-04-17T00:21:40.195Z,88
2023-04-17T00:22:40.599Z,88
2023-04-17T00:23:40.977Z,88
2023-04-17T00:24:41.363Z,88
2023-04-17T00:25:41.753Z,88
2023-04-17T00:26:42.186Z,88
2023-04-17T00:27:42.608Z,88
2023-04-17T00:28:42.993Z,88
2023-04-17T00:29:43.384Z,88
2023-04-17T00:30:43.783Z,88
2023-04-17T00:31:44.210Z,88
2023-04-17T00:32:44.627Z,88
2023-04-17T00:33:45.065Z,88
2023-04-17T00:34:45.451Z,88
2023-04-17T00:35:45.863Z,88
2023-04-17T00:36:46.276Z,88
2023-04-17T00:37:46.667Z,88
2023-04-17T00:38:47.049Z,88
2023-04-17T00:39:47.457Z,88
2023-04-17T00:40:47.848Z,88
2023-04-17T00:41:48.258Z,88
2023-04-17T00:42:48.638Z,88
2023-04-17T00:43:49.025Z,88
2023-04-17T00:44:49.410Z,88
2023-04-17T00:45:49.974Z,88
2023-04-17T00:46:50.431Z,88
2023-04-17T00:47:50.899Z,88
2023-04-17T00:48:51.303Z,88
2023-04-17T00:49:51.665Z,88
2023-04-17T00:50:52.045Z,88
2023-04-17T00:51:52.445Z,88
2023-04-17T00:52:52.830Z,88
2023-04-17T00:53:53.211Z,88
2023-04-17T00:54:53.598Z,88
2023-04-17T00:55:53.989Z,88
2023-04-17T00:56:54.392Z,88
2023-04-17T00:57:54.790Z,88
2023-04-17T00:58:55.175Z,88
2023-04-17T00:59:55.572Z,88
2023-04-17T01:00:56.034Z,88
2023-04-17T01:01:56.633Z,88
2023-04-17T01:02:57.172Z,88
2023-04-17T01:03:57.720Z,88
2023-04-17T01:04:58.132Z,88
2023-04-17T01:05:58.517Z,88
2023-04-17T01:06:58.917Z,88
2023-04-17T01:07:59.296Z,88
2023-04-17T01:08:59.674Z,88
2023-04-17T01:10:00.061Z,88
2023-04-17T01:11:00.469Z,88
2023-04-17T01:12:00.928Z,88
2023-04-17T01:13:01.338Z,88
2023-04-17T01:14:01.737Z,88
2023-04-17T01:15:02.121Z,88
2023-04-17T01:16:02.509Z,88
2023-04-17T01:17:03.011Z,88
2023-04-17T01:18:03.512Z,88
2023-04-17T01:19:03.912Z,88
2023-04-17T01:20:04.294Z,88
2023-04-17T01:21:04.646Z,88
2023-04-17T01:22:05.020Z,88
2023-04-17T01:23:05.402Z,88
2023-04-17T01:24:05.801Z,88
2023-04-17T01:25:06.216Z,88
2023-04-17T01:26:06.637Z,88
2023-04-17T01:27:07.107Z,88
2023-04-17T01:28:07.490Z,88
2023-04-17T01:29:07.895Z,88
2023-04-17T01:30:08.293Z,88
2023-04-17T01:31:08.723Z,88
2023-04-17T01:32:09.282Z,88
2023-04-17T01:33:09.694Z,88
2023-04-17T01:34:10.080Z,87
2023-04-17T01:35:10.455Z,87
2023-04-17T01:36:10.832Z,87
2023-04-17T01:37:11.229Z,87
2023-04-17T01:38:11.627Z,87
2023-04-17T01:39:12.325Z,87
2023-04-17T01:40:12.874Z,87
2023-04-17T01:41:13.320Z,87
2023-04-17T01:42:13.744Z,87
2023-04-17T01:43:14.135Z,87
2023-04-17T01:44:14.563Z,87
2023-04-17T01:45:14.948Z,87
2023-04-17T01:46:15.424Z,87
2023-04-17T01:47:15.871Z,87
2023-04-17T01:48:16.257Z,87
2023-04-17T01:49:16.644Z,87
2023-04-17T01:50:17.026Z,87
2023-04-17T01:51:17.438Z,86
2023-04-17T01:52:17.846Z,86
2023-04-17T01:53:18.249Z,86
2023-04-17T01:54:18.639Z,86
2023-04-17T01:55:19.014Z,86
2023-04-17T01:56:19.394Z,86
2023-04-17T01:57:19.800Z,86
2023-04-17T01:58:20.196Z,86
2023-04-17T01:59:20.586Z,86
2023-04-17T02:00:20.968Z,86
2023-04-17T02:01:21.414Z,86
2023-04-17T02:02:21.856Z,86
2023-04-17T02:03:22.402Z,86
2023-04-17T02:04:23.130Z,86
2023-04-17T02:05:23.630Z,86
2023-04-17T02:06:24.019Z,86
2023-04-17T02:07:24.418Z,86
2023-04-17T02:08:24.811Z,86
2023-04-17T02:09:25.207Z,86
2023-04-17T02:10:25.598Z,85
2023-04-17T02:11:25.976Z,85
2023-04-17T02:12:26.472Z,85
2023-04-17T02:13:26.850Z,85
2023-04-17T02:14:27.264Z,85
2023-04-17T02:15:27.657Z,85
2023-04-17T02:16:28.193Z,85
2023-04-17T02:17:28.785Z,85
2023-04-17T02:18:29.192Z,85
2023-04-17T02:19:29.575Z,85
2023-04-17T02:20:29.948Z,85
2023-04-17T02:21:30.315Z,85
2023-04-17T02:22:30.793Z,85
2023-04-17T02:23:31.179Z,85
2023-04-17T02:24:31.570Z,85
2023-04-17T02:25:31.973Z,85
2023-04-17T02:26:32.364Z,85
2023-04-17T02:27:32.863Z,85
2023-04-17T02:28:33.228Z,85
2023-04-17T02:29:33.609Z,85
2023-04-17T02:30:33.996Z,85
2023-04-17T02:31:34.419Z,85
2023-04-17T02:32:34.980Z,85
2023-04-17T02:33:35.389Z,85
2023-04-17T02:34:35.775Z,85
2023-04-17T02:35:36.166Z,85
2023-04-17T02:36:36.555Z,85
2023-04-17T02:37:36.956Z,85
2023-04-17T02:38:37.355Z,85
2023-04-17T02:39:37.768Z,85
2023-04-17T02:40:38.157Z,85
2023-04-17T02:41:38.549Z,85
2023-04-17T02:42:38.957Z,85
2023-04-17T02:43:39.348Z,85
2023-04-17T02:44:39.728Z,85
2023-04-17T02:45:40.105Z,85
2023-04-17T02:46:40.555Z,85
2023-04-17T02:47:41.005Z,85
2023-04-17T02:48:41.481Z,85
2023-04-17T02:49:41.879Z,85
2023-04-17T02:50:42.259Z,85
2023-04-17T02:51:42.646Z,85
2023-04-17T02:52:43.057Z,85
2023-04-17T02:53:43.437Z,85
2023-04-17T02:54:43.833Z,85
2023-04-17T02:55:44.205Z,85
2023-04-17T02:56:44.590Z,85
2023-04-17T02:57:45.001Z,85
2023-04-17T02:58:45.463Z,85
2023-04-17T02:59:45.888Z,85
2023-04-17T03:00:46.308Z,85
2023-04-17T03:01:46.735Z,85
2023-04-17T03:02:47.395Z,85
2023-04-17T03:03:48.135Z,85
2023-04-17T03:04:48.810Z,85
2023-04-17T03:05:49.202Z,85
2023-04-17T03:06:49.575Z,85
2023-04-17T03:07:49.986Z,85
2023-04-17T03:08:50.364Z,85
2023-04-17T03:09:50.766Z,85
2023-04-17T03:10:51.171Z,85
2023-04-17T03:11:51.533Z,85
2023-04-17T03:12:52.099Z,85
2023-04-17T03:13:52.509Z,85
2023-04-17T03:14:52.888Z,85
2023-04-17T03:15:53.283Z,86
2023-04-17T03:16:53.798Z,86
2023-04-17T03:17:54.383Z,86
2023-04-17T03:18:54.791Z,86
2023-04-17T03:19:55.182Z,86
2023-04-17T03:20:55.565Z,86
2023-04-17T03:21:55.926Z,86
2023-04-17T03:22:56.351Z,86
2023-04-17T03:23:56.738Z,86
2023-04-17T03:24:57.115Z,86
2023-04-17T03:25:57.489Z,86
2023-04-17T03:26:57.872Z,86
2023-04-17T03:27:58.389Z,86
2023-04-17T03:28:58.930Z,86
2023-04-17T03:29:59.316Z,86
2023-04-17T03:30:59.719Z,86
2023-04-17T03:32:00.232Z,86
2023-04-17T03:33:00.693Z,85
2023-04-17T03:34:01.118Z,85
2023-04-17T03:35:01.499Z,86
2023-04-17T03:36:01.886Z,86
2023-04-17T03:37:02.263Z,86
2023-04-17T03:38:02.680Z,86
2023-04-17T03:39:03.056Z,86
2023-04-17T03:40:03.442Z,86
2023-04-17T03:41:03.816Z,86
2023-04-17T03:42:04.200Z,86
2023-04-17T03:43:04.599Z,86
2023-04-17T03:44:04.948Z,86
2023-04-17T03:45:05.355Z,86
2023-04-17T03:46:05.761Z,86
2023-04-17T03:47:06.169Z,86
2023-04-17T03:48:06.591Z,86
2023-04-17T03:49:07.004Z,86
2023-04-17T03:50:07.415Z,86
2023-04-17T03:51:07.862Z,86
2023-04-17T03:52:08.243Z,86
2023-04-17T03:53:08.646Z,86
2023-04-17T03:54:09.022Z,86
2023-04-17T03:55:09.474Z,86
2023-04-17T03:56:09.879Z,87
2023-04-17T03:57:10.270Z,87
2023-04-17T03:58:10.662Z,87
2023-04-17T03:59:11.295Z,87
2023-04-17T04:00:11.839Z,87
2023-04-17T04:01:12.265Z,87
2023-04-17T04:02:12.717Z,87
2023-04-17T04:03:13.363Z,87
2023-04-17T04:04:14.108Z,87
2023-04-17T04:05:14.768Z,87
2023-04-17T04:06:15.278Z,87
2023-04-17T04:07:15.670Z,87
2023-04-17T04:08:16.079Z,87
2023-04-17T04:09:16.457Z,87
2023-04-17T04:10:16.850Z,87
2023-04-17T04:11:17.244Z,87
2023-04-17T04:12:17.638Z,87
2023-04-17T04:13:18.128Z,87
2023-04-17T04:14:18.575Z,87
2023-04-17T04:15:18.978Z,87
2023-04-17T04:16:19.419Z,87
2023-04-17T04:17:19.854Z,87
2023-04-17T04:18:20.303Z,87
2023-04-17T04:19:20.698Z,87
2023-04-17T04:20:21.091Z,87
2023-04-17T04:21:21.482Z,87
2023-04-17T04:22:21.892Z,87
2023-04-17T04:23:22.302Z,87
2023-04-17T04:24:22.684Z,87
2023-04-17T04:25:23.296Z,87
2023-04-17T04:26:23.683Z,87
2023-04-17T04:27:24.081Z,87
2023-04-17T04:28:24.501Z,87
2023-04-17T04:29:24.885Z,87
2023-04-17T04:30:25.257Z,87
2023-04-17T04:31:25.767Z,87
2023-04-17T04:32:26.218Z,87
2023-04-17T04:33:26.641Z,88
2023-04-17T04:34:27.041Z,88
2023-04-17T04:35:27.437Z,88
2023-04-17T04:36:27.821Z,88
2023-04-17T04:37:28.212Z,88
2023-04-17T04:38:28.616Z,88
2023-04-17T04:39:29.017Z,88
2023-04-17T04:40:29.417Z,88
2023-04-17T04:41:29.856Z,88
2023-04-17T04:42:30.295Z,88
2023-04-17T04:43:30.712Z,88
2023-04-17T04:44:31.059Z,88
2023-04-17T04:45:31.436Z,88
2023-04-17T04:46:31.828Z,88
2023-04-17T04:47:32.236Z,88
2023-04-17T04:48:32.654Z,88
2023-04-17T04:49:33.036Z,88
2023-04-17T04:50:33.415Z,88
2023-04-17T04:51:33.792Z,88
2023-04-17T04:52:34.162Z,88
2023-04-17T04:53:34.689Z,88
2023-04-17T04:54:35.090Z,88
2023-04-17T04:55:35.480Z,88
2023-04-17T04:56:35.845Z,88
2023-04-17T04:57:36.251Z,88
2023-04-17T04:58:36.673Z,88
2023-04-17T04:59:38.946Z,88
2023-04-17T05:00:39.600Z,88
2023-04-17T05:01:40.204Z,88
2023-04-17T05:02:40.768Z,88
2023-04-17T05:03:41.482Z,88
2023-04-17T05:04:42.045Z,88
2023-04-17T05:05:42.437Z,88
2023-04-17T05:06:42.839Z,88
2023-04-17T05:07:43.212Z,88
2023-04-17T05:08:43.690Z,88
2023-04-17T05:09:44.097Z,88
2023-04-17T05:10:44.476Z,88
2023-04-17T05:11:44.879Z,88
2023-04-17T05:12:45.263Z,88
2023-04-17T05:13:45.714Z,88
2023-04-17T05:14:46.110Z,88
2023-04-17T05:15:46.508Z,88
2023-04-17T05:16:47.108Z,88
2023-04-17T05:17:47.599Z,88
2023-04-17T05:18:48.044Z,88
2023-04-17T05:19:48.475Z,88
2023-04-17T05:20:48.874Z,88
2023-04-17T05:21:49.275Z,88
2023-04-17T05:22:49.722Z,88
2023-04-17T05:23:50.149Z,88
2023-04-17T05:24:50.538Z,88
2023-04-17T05:25:50.967Z,88
2023-04-17T05:26:51.356Z,88
2023-04-17T05:27:51.721Z,88
2023-04-17T05:28:52.163Z,88
2023-04-17T05:29:52.545Z,88
2023-04-17T05:30:52.934Z,88
2023-04-17T05:31:53.318Z,88
2023-04-17T05:32:53.790Z,87
2023-04-17T05:33:54.314Z,87
2023-04-17T05:34:54.695Z,87
2023-04-17T05:35:56.293Z,87
2023-04-17T05:36:56.896Z,87
2023-04-17T05:37:57.270Z,87
2023-04-17T05:38:57.672Z,87
2023-04-17T05:39:58.059Z,87
2023-04-17T05:40:58.457Z,87
2023-04-17T05:41:58.838Z,87
2023-04-17T05:42:59.217Z,87
2023-04-17T05:43:59.617Z,87
2023-04-17T05:45:00.066Z,87
2023-04-17T05:46:00.477Z,87
2023-04-17T05:47:00.885Z,87
2023-04-17T05:48:01.307Z,87
2023-04-17T05:49:01.734Z,87
2023-04-17T05:50:02.184Z,87
2023-04-17T05:51:02.560Z,87
2023-04-17T05:52:02.946Z,87
2023-04-17T05:53:03.339Z,87
2023-04-17T05:54:03.957Z,87
2023-04-17T05:55:04.375Z,87
2023-04-17T05:56:04.736Z,87
2023-04-17T05:57:05.093Z,87
2023-04-17T05:58:16.884Z,87
2023-04-17T05:59:23.356Z,87
2023-04-17T06:00:23.741Z,87
2023-04-17T06:01:24.141Z,87
2023-04-17T06:02:24.616Z,87
2023-04-17T06:03:25.251Z,87
2023-04-17T06:04:26.080Z,87
2023-04-17T06:05:26.670Z,87
2023-04-17T06:06:27.249Z,87
2023-04-17T06:07:27.622Z,87
2023-04-17T06:08:28.049Z,87
2023-04-17T06:09:28.504Z,87
2023-04-17T06:10:28.938Z,87
2023-04-17T06:11:29.312Z,87
2023-04-17T06:12:29.704Z,87
2023-04-17T06:13:30.093Z,87
2023-04-17T06:14:30.501Z,87
2023-04-17T06:15:30.853Z,87
2023-04-17T06:16:31.288Z,87
2023-04-17T06:17:31.793Z,87
2023-04-17T06:18:32.216Z,87
2023-04-17T06:19:32.629Z,87
2023-04-17T06:20:33.156Z,86
2023-04-17T06:21:33.557Z,86
2023-04-17T06:22:33.961Z,86
2023-04-17T06:23:34.377Z,86
2023-04-17T06:24:34.793Z,86
2023-04-17T06:25:35.163Z,86
2023-04-17T06:26:35.601Z,86
2023-04-17T06:27:37.195Z,86
2023-04-17T06:28:37.871Z,86
2023-04-17T06:29:38.293Z,86
2023-04-17T06:30:38.709Z,86
2023-04-17T06:31:39.259Z,86
2023-04-17T06:32:39.863Z,86
2023-04-17T06:33:40.281Z,86
2023-04-17T06:34:52.536Z,86
2023-04-17T06:35:58.813Z,86
2023-04-17T06:36:59.192Z,86
2023-04-17T06:37:59.588Z,86
2023-04-17T06:38:59.963Z,86
2023-04-17T06:40:00.396Z,86
2023-04-17T06:41:00.753Z,86
2023-04-17T06:42:01.129Z,86
2023-04-17T06:43:01.506Z,86
2023-04-17T06:44:01.915Z,86
2023-04-17T06:45:02.369Z,86
2023-04-17T06:46:02.778Z,86
2023-04-17T06:47:03.233Z,86
2023-04-17T06:48:03.701Z,86
2023-04-17T06:49:04.111Z,86
2023-04-17T06:50:04.589Z,86
2023-04-17T06:51:04.937Z,86
2023-04-17T06:52:05.330Z,86
2023-04-17T06:53:05.723Z,86
2023-04-17T06:54:06.120Z,86
2023-04-17T06:55:06.609Z,86
2023-04-17T06:56:06.998Z,86
2023-04-17T06:57:07.402Z,86
2023-04-17T06:58:07.783Z,86
2023-04-17T06:59:08.159Z,86
2023-04-17T07:00:08.657Z,86
2023-04-17T07:01:09.047Z,86
2023-04-17T07:02:09.482Z,86
2023-04-17T07:03:10.015Z,86
2023-04-17T07:04:10.722Z,86
2023-04-17T07:05:11.345Z,86
2023-04-17T07:06:11.784Z,86
2023-04-17T07:07:12.182Z,86
2023-04-17T07:08:12.570Z,86
2023-04-17T07:09:13.215Z,86
2023-04-17T07:10:13.795Z,86
2023-04-17T07:11:14.169Z,86
2023-04-17T07:12:14.543Z,86
2023-04-17T07:13:14.974Z,86
2023-04-17T07:14:15.355Z,86
2023-04-17T07:15:15.902Z,86
2023-04-17T07:16:16.429Z,86
2023-04-17T07:17:16.856Z,86
2023-04-17T07:18:17.245Z,86
2023-04-17T07:19:17.629Z,86
2023-04-17T07:20:18.128Z,85
2023-04-17T07:21:18.520Z,85
2023-04-17T07:22:18.907Z,85
2023-04-17T07:23:19.294Z,85
2023-04-17T07:24:19.667Z,85
2023-04-17T07:25:20.134Z,85
2023-04-17T07:26:20.526Z,85
2023-04-17T07:27:21.007Z,85
2023-04-17T07:28:21.400Z,85
2023-04-17T07:29:21.793Z,85
2023-04-17T07:30:22.281Z,85
2023-04-17T07:31:22.759Z,85
2023-04-17T07:32:23.181Z,85
2023-04-17T07:33:23.586Z,85
2023-04-17T07:34:24.034Z,85
2023-04-17T07:35:24.426Z,85
2023-04-17T07:36:24.801Z,85
2023-04-17T07:37:25.195Z,85
2023-04-17T07:38:25.577Z,85
2023-04-17T07:39:25.946Z,85
2023-04-17T07:40:26.344Z,85
2023-04-17T07:41:26.731Z,85
2023-04-17T07:42:27.118Z,85
2023-04-17T07:43:27.510Z,85
2023-04-17T07:44:27.902Z,85
2023-04-17T07:45:28.410Z,84
2023-04-17T07:46:28.844Z,85
2023-04-17T07:47:29.298Z,85
2023-04-17T07:48:29.684Z,85
2023-04-17T07:49:30.064Z,84
2023-04-17T07:50:30.453Z,84
2023-04-17T07:51:30.796Z,84
2023-04-17T07:52:31.191Z,84
2023-04-17T07:53:31.590Z,84
2023-04-17T07:54:32.003Z,84
2023-04-17T07:55:32.419Z,84
2023-04-17T07:56:32.865Z,84
2023-04-17T07:57:33.268Z,84
2023-04-17T07:58:33.665Z,84
2023-04-17T07:59:34.059Z,83
2023-04-17T08:00:34.548Z,83
2023-04-17T08:01:34.951Z,83
2023-04-17T08:02:35.563Z,83
2023-04-17T08:03:36.434Z,83
2023-04-17T08:04:37.223Z,83
2023-04-17T08:05:37.708Z,84
2023-04-17T08:06:38.087Z,83
2023-04-17T08:07:38.477Z,83
2023-04-17T08:08:38.892Z,83
2023-04-17T08:09:39.973Z,83
2023-04-17T08:10:41.429Z,83
2023-04-17T08:11:55.708Z,83
2023-04-17T08:12:57.800Z,83
2023-04-17T08:13:58.185Z,83
2023-04-17T08:14:58.591Z,83
2023-04-17T08:15:58.984Z,83
2023-04-17T08:16:59.384Z,83
2023-04-17T08:17:59.825Z,83
2023-04-17T08:19:00.758Z,83
2023-04-17T08:20:01.152Z,83
2023-04-17T08:21:01.626Z,83
2023-04-17T08:22:02.067Z,83
2023-04-17T08:23:02.471Z,83
2023-04-17T08:24:02.850Z,83
2023-04-17T08:25:03.235Z,83
2023-04-17T08:26:03.677Z,83
2023-04-17T08:27:04.079Z,83
2023-04-17T08:28:04.464Z,83
2023-04-17T08:29:04.818Z,83
2023-04-17T08:30:05.214Z,83
2023-04-17T08:31:05.664Z,83
2023-04-17T08:32:14.603Z,83
2023-04-17T08:33:15.923Z,83
2023-04-17T08:34:16.306Z,83
2023-04-17T08:35:16.738Z,83
2023-04-17T08:36:17.155Z,83
2023-04-17T08:37:17.542Z,83
2023-04-17T08:38:17.918Z,83
2023-04-17T08:39:18.302Z,83
2023-04-17T08:40:18.749Z,83
2023-04-17T08:41:19.349Z,83
2023-04-17T08:42:19.747Z,82
2023-04-17T08:43:20.154Z,81
2023-04-17T08:44:20.564Z,82
2023-04-17T08:45:21.011Z,82
2023-04-17T08:46:21.578Z,82
2023-04-17T08:47:22.044Z,82
2023-04-17T08:48:22.490Z,81
2023-04-17T08:49:22.887Z,80
2023-04-17T08:50:23.359Z,80
2023-04-17T08:51:23.977Z,80
2023-04-17T08:52:24.380Z,80
2023-04-17T08:53:24.780Z,80
2023-04-17T08:54:25.158Z,80
2023-04-17T08:55:25.610Z,79
2023-04-17T08:56:26.072Z,78
2023-04-17T08:57:26.481Z,78
2023-04-17T08:58:28.666Z,78
2023-04-17T08:59:29.243Z,78
2023-04-17T09:00:29.629Z,79
2023-04-17T09:01:30.148Z,79
2023-04-17T09:02:30.641Z,79
2023-04-17T09:03:31.260Z,79
2023-04-17T09:04:31.814Z,79
2023-04-17T09:05:32.278Z,78
2023-04-17T09:06:32.694Z,77
2023-04-17T09:07:33.086Z,78
2023-04-17T09:08:33.467Z,78
2023-04-17T09:09:33.865Z,79
2023-04-17T09:10:34.249Z,79
2023-04-17T09:11:34.864Z,76
2023-04-17T09:12:35.268Z,76
2023-04-17T09:13:35.640Z,77
2023-04-17T09:14:36.026Z,77
2023-04-17T09:15:36.506Z,76
2023-04-17T09:16:37.076Z,76
2023-04-17T09:17:37.713Z,76
2023-04-17T09:18:38.289Z,76
2023-04-17T09:19:38.668Z,75
2023-04-17T09:20:39.044Z,75
2023-04-17T09:21:39.455Z,74
2023-04-17T09:22:39.830Z,75
2023-04-17T09:23:40.208Z,75
2023-04-17T09:24:40.590Z,75
2023-04-17T09:25:40.967Z,75
2023-04-17T09:26:41.370Z,75
2023-04-17T09:27:41.765Z,75
2023-04-17T09:28:42.141Z,75
2023-04-17T09:29:42.530Z,75
2023-04-17T09:30:42.923Z,74
2023-04-17T09:31:43.497Z,74
2023-04-17T09:32:44.045Z,74
2023-04-17T09:33:44.494Z,74
2023-04-17T09:34:44.879Z,74
2023-04-17T09:35:45.265Z,74
2023-04-17T09:36:45.756Z,74
2023-04-17T09:37:46.155Z,74
2023-04-17T09:38:46.514Z,72
2023-04-17T09:39:46.937Z,72
2023-04-17T09:40:47.362Z,72
2023-04-17T09:41:47.791Z,72
2023-04-17T09:42:48.180Z,72
2023-04-17T09:43:48.563Z,71
2023-04-17T09:44:48.973Z,72
2023-04-17T09:45:49.350Z,71
2023-04-17T09:46:49.838Z,71
2023-04-17T09:47:50.346Z,71
2023-04-17T09:48:50.867Z,71
2023-04-17T09:49:51.305Z,71
2023-04-17T09:50:51.681Z,70
2023-04-17T09:51:52.101Z,70
2023-04-17T09:52:52.495Z,70
2023-04-17T09:53:52.895Z,70
2023-04-17T09:54:53.283Z,70
2023-04-17T09:55:53.682Z,68
2023-04-17T09:56:54.100Z,68
2023-04-17T09:57:54.478Z,69
2023-04-17T09:58:54.902Z,69
2023-04-17T09:59:55.341Z,69
2023-04-17T10:00:55.785Z,69
2023-04-17T10:01:56.276Z,69
2023-04-17T10:02:56.958Z,69
2023-04-17T10:03:57.724Z,69
2023-04-17T10:04:58.284Z,69
2023-04-17T10:05:58.687Z,69
2023-04-17T10:06:59.119Z,69
2023-04-17T10:07:59.498Z,69
2023-04-17T10:08:59.878Z,69
2023-04-17T10:10:00.299Z,69
2023-04-17T10:11:00.649Z,69
2023-04-17T10:12:01.049Z,69
2023-04-17T10:13:01.423Z,68
2023-04-17T10:14:01.816Z,68
2023-04-17T10:15:02.210Z,67
2023-04-17T10:16:02.676Z,67
2023-04-17T10:17:03.174Z,67
2023-04-17T10:18:03.588Z,66
2023-04-17T10:19:03.987Z,65
2023-04-17T10:20:04.383Z,66
2023-04-17T10:21:06.536Z,65
2023-04-17T10:22:07.089Z,64
2023-04-17T10:23:07.479Z,63
2023-04-17T10:24:07.859Z,61
2023-04-17T10:25:08.243Z,61
2023-04-17T10:26:08.646Z,62
2023-04-17T10:27:09.057Z,63
2023-04-17T10:28:09.445Z,63
2023-04-17T10:29:09.826Z,63
2023-04-17T10:30:10.310Z,61
2023-04-17T10:31:10.704Z,61
2023-04-17T10:32:11.322Z,59
2023-04-17T10:33:11.837Z,59
2023-04-17T10:34:12.509Z,60
2023-04-17T10:35:13.006Z,61
2023-04-17T10:36:13.386Z,61
2023-04-17T10:37:13.793Z,60
2023-04-17T10:38:14.184Z,60
2023-04-17T10:39:14.723Z,59
2023-04-17T10:40:15.327Z,60
2023-04-17T10:41:15.755Z,59
2023-04-17T10:42:16.184Z,59
2023-04-17T10:43:16.581Z,59
2023-04-17T10:44:16.972Z,58
2023-04-17T10:45:17.347Z,58
2023-04-17T10:46:17.795Z,59
2023-04-17T10:47:18.202Z,59
2023-04-17T10:48:18.688Z,59
2023-04-17T10:49:19.152Z,58
2023-04-17T10:50:19.540Z,57
2023-04-17T10:51:19.928Z,57
2023-04-17T10:52:20.353Z,58
2023-04-17T10:53:20.743Z,58
2023-04-17T10:54:21.141Z,56
2023-04-17T10:55:21.526Z,56
2023-04-17T10:56:21.920Z,57
2023-04-17T10:57:22.338Z,57
2023-04-17T10:58:22.722Z,58
2023-04-17T10:59:32.230Z,58
2023-04-17T11:00:32.623Z,58
2023-04-17T11:01:33.046Z,58
2023-04-17T11:02:33.617Z,57
2023-04-17T11:03:34.087Z,54
2023-04-17T11:04:34.649Z,53
2023-04-17T11:05:35.126Z,52
2023-04-17T11:06:35.515Z,54
2023-04-17T11:07:36.090Z,52
2023-04-17T11:08:36.473Z,51
2023-04-17T11:09:36.855Z,53
2023-04-17T11:10:37.231Z,53
2023-04-17T11:11:44.000Z,54
2023-04-17T11:12:45.585Z,54
2023-04-17T11:13:45.972Z,54
2023-04-17T11:14:46.348Z,55
2023-04-17T11:15:46.814Z,55
2023-04-17T11:16:47.327Z,53
2023-04-17T11:17:47.802Z,52
2023-04-17T11:18:48.249Z,52
2023-04-17T11:19:48.645Z,53
2023-04-17T11:20:49.041Z,53
2023-04-17T11:21:49.418Z,52
2023-04-17T11:22:49.819Z,53
2023-04-17T11:23:50.187Z,51
2023-04-17T11:24:50.569Z,50
2023-04-17T11:25:50.986Z,51
2023-04-17T11:26:51.349Z,47
2023-04-17T11:27:51.736Z,49
2023-04-17T11:28:52.115Z,50
2023-04-17T11:29:52.490Z,49
2023-04-17T11:30:52.962Z,46
2023-04-17T11:31:53.427Z,49
2023-04-17T11:32:54.030Z,48
2023-04-17T11:33:54.439Z,49
2023-04-17T11:34:54.866Z,49
2023-04-17T11:35:55.254Z,49
2023-04-17T11:36:55.602Z,45
2023-04-17T11:37:56.096Z,44
2023-04-17T11:38:56.474Z,46
2023-04-17T11:39:56.845Z,46
2023-04-17T11:40:57.216Z,46
2023-04-17T11:41:57.603Z,46
2023-04-17T11:42:58.022Z,41
2023-04-17T11:43:58.400Z,34
2023-04-17T11:44:58.788Z,40
2023-04-17T11:45:59.260Z,36
2023-04-17T11:46:59.695Z,32
2023-04-17T11:48:00.157Z,34
2023-04-17T11:49:00.558Z,42
2023-04-17T11:50:00.917Z,42
2023-04-17T11:51:01.369Z,43
2023-04-17T11:52:01.838Z,45
2023-04-17T11:53:02.280Z,45
2023-04-17T11:54:02.667Z,42
2023-04-17T11:55:03.049Z,44
2023-04-17T11:56:03.434Z,44
2023-04-17T11:57:03.927Z,43
2023-04-17T11:58:04.366Z,40
2023-04-17T11:59:04.710Z,44
2023-04-17T12:00:05.086Z,43
2023-04-17T12:01:05.528Z,44
2023-04-17T12:02:05.958Z,5
2023-04-17T12:03:06.520Z,110
2023-04-17T12:04:07.215Z,5
2023-04-17T12:05:07.910Z,5
2023-04-17T12:06:08.469Z,30
2023-04-17T12:07:08.873Z,30
2023-04-17T12:08:09.385Z,30
2023-04-17T12:09:09.935Z,24
2023-04-17T12:10:10.812Z,27
2023-04-17T12:11:11.863Z,8
2023-04-17T12:12:12.285Z,21
2023-04-17T12:13:12.679Z,5
2023-04-17T12:14:13.207Z,27
2023-04-17T12:15:13.724Z,27
2023-04-17T12:16:14.139Z,30
2023-04-17T12:17:14.520Z,32
2023-04-17T12:18:15.035Z,34
2023-04-17T12:19:15.414Z,31
2023-04-17T12:20:15.782Z,33
2023-04-17T12:21:16.181Z,32
2023-04-17T12:22:16.573Z,30
2023-04-17T12:23:16.994Z,18
2023-04-17T12:24:17.388Z,5
2023-04-17T12:25:17.753Z,44
2023-04-17T12:26:18.128Z,5
2023-04-17T12:27:18.514Z,38
2023-04-17T12:28:18.918Z,5
2023-04-17T12:29:26.515Z,5
2023-04-17T12:30:37.017Z,5
2023-04-17T12:31:37.436Z,30
2023-04-17T12:32:37.847Z,57
2023-04-17T12:33:38.278Z,5
2023-04-17T12:34:38.666Z,46
2023-04-17T12:35:39.037Z,5
2023-04-17T12:36:39.502Z,5
2023-04-17T12:37:39.961Z,110
2023-04-17T12:38:40.372Z,110
2023-04-17T12:39:40.763Z,11
2023-04-17T12:40:41.156Z,5
2023-04-17T12:41:41.536Z,5
2023-04-17T12:42:48.714Z,5
2023-04-17T12:43:49.940Z,5
2023-04-17T12:44:50.323Z,38
2023-04-17T12:45:50.768Z,5
2023-04-17T12:46:51.208Z,6
2023-04-17T12:47:51.635Z,26
2023-04-17T12:48:52.095Z,26
2023-04-17T12:49:52.496Z,5
2023-04-17T12:50:52.887Z,5
2023-04-17T12:51:53.261Z,5
2023-04-17T12:52:53.644Z,110
2023-04-17T12:53:54.054Z,110
2023-04-17T12:54:54.424Z,110
2023-04-17T12:55:54.794Z,110
2023-04-17T12:56:55.170Z,110
2023-04-17T12:57:55.557Z,110
2023-04-17T12:58:55.971Z,5
2023-04-17T12:59:56.356Z,10
2023-04-17T13:00:56.767Z,5
2023-04-17T13:01:57.251Z,5
2023-04-17T13:02:57.845Z,110
2023-04-17T13:03:58.413Z,110
2023-04-17T13:04:58.914Z,110
2023-04-17T13:05:59.284Z,110
2023-04-17T13:06:59.667Z,110
2023-04-17T13:08:00.073Z,110
2023-04-17T13:09:00.516Z,5
2023-04-17T13:10:00.880Z,110
2023-04-17T13:11:01.266Z,110
2023-04-17T13:12:01.721Z,110
2023-04-17T13:13:02.140Z,110
2023-04-17T13:14:02.631Z,110
2023-04-17T13:15:02.998Z,110
2023-04-17T13:16:03.477Z,5
2023-04-17T13:17:04.015Z,5
2023-04-17T13:18:04.550Z,5
2023-04-17T13:19:04.966Z,5
2023-04-17T13:20:05.342Z,5
2023-04-17T13:21:05.745Z,5
2023-04-17T13:22:06.141Z,5
2023-04-17T13:23:06.536Z,5
2023-04-17T13:24:06.947Z,5
2023-04-17T13:25:07.338Z,5
2023-04-17T13:26:07.793Z,5
2023-04-17T13:27:08.186Z,5
2023-04-17T13:28:08.593Z,5
2023-04-17T13:29:09.036Z,7
2023-04-17T13:30:09.421Z,5
2023-04-17T13:31:09.852Z,5
2023-04-17T13:32:10.261Z,27
2023-04-17T13:33:10.652Z,38
2023-04-17T13:34:11.118Z,5
2023-04-17T13:35:11.500Z,5
2023-04-17T13:36:11.891Z,5
2023-04-17T13:37:12.417Z,5
2023-04-17T13:38:12.847Z,32
2023-04-17T13:39:13.495Z,11
2023-04-17T13:40:16.486Z,110
2023-04-17T13:41:17.676Z,5
2023-04-17T13:42:18.039Z,110
2023-04-17T13:43:18.410Z,110
2023-04-17T13:44:18.844Z,110
2023-04-17T13:45:19.232Z,110
2023-04-17T13:46:19.660Z,110
2023-04-17T13:47:20.091Z,110
2023-04-17T13:48:20.507Z,110
2023-04-17T13:49:20.910Z,110
2023-04-17T13:50:21.327Z,110
2023-04-17T13:51:21.716Z,110
2023-04-17T13:52:22.091Z,110
2023-04-17T13:53:22.466Z,110
2023-04-17T13:54:22.869Z,110
2023-04-17T13:55:23.256Z,110
2023-04-17T13:56:23.638Z,110
2023-04-17T13:57:24.013Z,110
2023-04-17T13:58:24.402Z,110
2023-04-17T13:59:24.772Z,110
2023-04-17T14:00:25.212Z,110
2023-04-17T14:01:25.691Z,110
2023-04-17T14:02:26.363Z,110
2023-04-17T14:03:27.055Z,110
2023-04-17T14:04:27.741Z,110
2023-04-17T14:05:28.313Z,110
2023-04-17T14:06:28.692Z,110
2023-04-17T14:07:29.080Z,110
2023-04-17T14:08:29.496Z,110
2023-04-17T14:09:29.977Z,110
2023-04-17T14:10:30.346Z,110
2023-04-17T14:11:30.721Z,110
2023-04-17T14:12:31.092Z,110
2023-04-17T14:13:31.487Z,110
2023-04-17T14:14:31.980Z,110
2023-04-17T14:15:32.356Z,110
2023-04-17T14:16:32.776Z,110
2023-04-17T14:17:33.207Z,110
2023-04-17T14:18:33.641Z,110
2023-04-17T14:19:34.164Z,110
2023-04-17T14:20:34.556Z,110
2023-04-17T14:21:34.945Z,110
2023-04-17T14:22:35.329Z,110